sensor_id;sensor_type;location;lat;lon;timestamp;P1;durP1;ratioP1;P2;durP2;ratioP2
33206;SDS011;19565;46.602;11.534;2023-09-30T00:01:32;4.45;;;2.58;;
33206;SDS011;19565;46.602;11.534;2023-09-30T00:04:00;3.70;;;2.40;;
33206;SDS011;19565;46.602;11.534;2023-09-30T00:06:31;2.75;;;2.35;;
33206;SDS011;19565;46.602;11.534;2023-09-30T00:08:59;1.83;;;1.55;;
33206;SDS011;19565;46.602;11.534;2023-09-30T00:11:27;1.50;;;1.38;;
33206;SDS011;19565;46.602;11.534;2023-09-30T00:13:55;2.33;;;1.30;;
33206;SDS011;19565;46.602;11.534;2023-09-30T00:16:23;2.55;;;1.85;;
33206;SDS011;19565;46.602;11.534;2023-09-30T00:18:52;1.98;;;1.55;;
33206;SDS011;19565;46.602;11.534;2023-09-30T00:21:21;3.28;;;2.30;;
33206;SDS011;19565;46.602;11.534;2023-09-30T00:23:49;2.55;;;1.63;;
33206;SDS011;19565;46.602;11.534;2023-09-30T00:26:17;1.77;;;1.65;;
33206;SDS011;19565;46.602;11.534;2023-09-30T00:28:45;3.85;;;2.50;;
33206;SDS011;19565;46.602;11.534;2023-09-30T00:31:13;2.13;;;1.65;;
33206;SDS011;19565;46.602;11.534;2023-09-30T00:33:41;4.65;;;2.95;;
33206;SDS011;19565;46.602;11.534;2023-09-30T00:36:11;2.65;;;2.03;;
33206;SDS011;19565;46.602;11.534;2023-09-30T00:38:39;4.30;;;2.80;;
33206;SDS011;19565;46.602;11.534;2023-09-30T00:41:07;0.90;;;0.82;;
33206;SDS011;19565;46.602;11.534;2023-09-30T00:43:35;2.83;;;1.73;;
33206;SDS011;19565;46.602;11.534;2023-09-30T00:46:04;3.22;;;2.00;;
33206;SDS011;19565;46.602;11.534;2023-09-30T00:48:37;2.50;;;1.92;;
33206;SDS011;19565;46.602;11.534;2023-09-30T00:51:05;3.97;;;1.88;;
33206;SDS011;19565;46.602;11.534;2023-09-30T00:53:35;3.17;;;2.28;;
33206;SDS011;19565;46.602;11.534;2023-09-30T00:56:04;4.43;;;2.70;;
33206;SDS011;19565;46.602;11.534;2023-09-30T00:58:32;2.45;;;2.25;;
33206;SDS011;19565;46.602;11.534;2023-09-30T01:01:02;4.55;;;3.30;;
33206;SDS011;19565;46.602;11.534;2023-09-30T01:03:31;1.73;;;1.63;;
33206;SDS011;19565;46.602;11.534;2023-09-30T01:06:00;2.67;;;1.75;;
33206;SDS011;19565;46.602;11.534;2023-09-30T01:08:28;3.13;;;2.85;;
33206;SDS011;19565;46.602;11.534;2023-09-30T01:10:58;2.78;;;2.20;;
33206;SDS011;19565;46.602;11.534;2023-09-30T01:13:31;2.72;;;2.47;;
33206;SDS011;19565;46.602;11.534;2023-09-30T01:16:02;1.98;;;1.75;;
33206;SDS011;19565;46.602;11.534;2023-09-30T01:18:31;4.35;;;2.33;;
33206;SDS011;19565;46.602;11.534;2023-09-30T01:20:59;2.22;;;2.03;;
33206;SDS011;19565;46.602;11.534;2023-09-30T01:23:32;12.82;;;2.85;;
33206;SDS011;19565;46.602;11.534;2023-09-30T01:26:02;1.40;;;1.30;;
33206;SDS011;19565;46.602;11.534;2023-09-30T01:28:32;1.92;;;1.83;;
33206;SDS011;19565;46.602;11.534;2023-09-30T01:31:00;1.83;;;1.73;;
33206;SDS011;19565;46.602;11.534;2023-09-30T01:33:28;2.08;;;1.70;;
33206;SDS011;19565;46.602;11.534;2023-09-30T01:35:56;2.30;;;1.50;;
33206;SDS011;19565;46.602;11.534;2023-09-30T01:38:24;2.80;;;1.63;;
33206;SDS011;19565;46.602;11.534;2023-09-30T01:40:53;3.40;;;2.47;;
33206;SDS011;19565;46.602;11.534;2023-09-30T01:43:25;4.32;;;2.72;;
33206;SDS011;19565;46.602;11.534;2023-09-30T01:45:53;4.00;;;1.98;;
33206;SDS011;19565;46.602;11.534;2023-09-30T01:48:21;2.30;;;2.13;;
33206;SDS011;19565;46.602;11.534;2023-09-30T01:50:49;3.92;;;2.15;;
33206;SDS011;19565;46.602;11.534;2023-09-30T01:53:17;1.75;;;1.65;;
33206;SDS011;19565;46.602;11.534;2023-09-30T01:55:45;4.03;;;2.28;;
33206;SDS011;19565;46.602;11.534;2023-09-30T01:58:15;1.25;;;1.08;;
33206;SDS011;19565;46.602;11.534;2023-09-30T02:00:44;2.15;;;1.52;;
33206;SDS011;19565;46.602;11.534;2023-09-30T02:03:12;2.20;;;1.15;;
33206;SDS011;19565;46.602;11.534;2023-09-30T02:05:40;2.30;;;1.60;;
33206;SDS011;19565;46.602;11.534;2023-09-30T02:08:09;2.65;;;1.65;;
33206;SDS011;19565;46.602;11.534;2023-09-30T02:10:37;2.97;;;1.85;;
33206;SDS011;19565;46.602;11.534;2023-09-30T02:13:05;3.42;;;1.90;;
33206;SDS011;19565;46.602;11.534;2023-09-30T02:15:35;2.78;;;2.55;;
33206;SDS011;19565;46.602;11.534;2023-09-30T02:18:07;3.65;;;2.28;;
33206;SDS011;19565;46.602;11.534;2023-09-30T02:20:35;1.63;;;1.52;;
33206;SDS011;19565;46.602;11.534;2023-09-30T02:23:05;1.63;;;1.30;;
33206;SDS011;19565;46.602;11.534;2023-09-30T02:25:33;1.95;;;1.13;;
33206;SDS011;19565;46.602;11.534;2023-09-30T02:28:01;2.53;;;2.30;;
33206;SDS011;19565;46.602;11.534;2023-09-30T02:30:30;4.93;;;2.35;;
33206;SDS011;19565;46.602;11.534;2023-09-30T02:32:59;1.33;;;1.23;;
33206;SDS011;19565;46.602;11.534;2023-09-30T02:35:27;2.55;;;1.83;;
33206;SDS011;19565;46.602;11.534;2023-09-30T02:37:55;1.52;;;1.42;;
33206;SDS011;19565;46.602;11.534;2023-09-30T02:40:25;2.35;;;2.15;;
33206;SDS011;19565;46.602;11.534;2023-09-30T02:42:53;2.50;;;2.30;;
33206;SDS011;19565;46.602;11.534;2023-09-30T02:45:21;1.00;;;0.90;;
33206;SDS011;19565;46.602;11.534;2023-09-30T02:47:49;2.00;;;1.58;;
33206;SDS011;19565;46.602;11.534;2023-09-30T02:50:18;1.73;;;1.63;;
33206;SDS011;19565;46.602;11.534;2023-09-30T02:52:47;6.55;;;3.72;;
33206;SDS011;19565;46.602;11.534;2023-09-30T02:55:16;2.90;;;2.70;;
33206;SDS011;19565;46.602;11.534;2023-09-30T02:57:44;2.88;;;1.85;;
33206;SDS011;19565;46.602;11.534;2023-09-30T03:00:13;3.15;;;2.50;;
33206;SDS011;19565;46.602;11.534;2023-09-30T03:02:51;1.38;;;1.02;;
33206;SDS011;19565;46.602;11.534;2023-09-30T03:05:21;2.47;;;1.60;;
33206;SDS011;19565;46.602;11.534;2023-09-30T03:07:50;2.42;;;1.90;;
33206;SDS011;19565;46.602;11.534;2023-09-30T03:10:18;1.50;;;1.40;;
33206;SDS011;19565;46.602;11.534;2023-09-30T03:12:50;1.45;;;1.33;;
33206;SDS011;19565;46.602;11.534;2023-09-30T03:15:18;5.18;;;2.22;;
33206;SDS011;19565;46.602;11.534;2023-09-30T03:17:46;4.32;;;1.77;;
33206;SDS011;19565;46.602;11.534;2023-09-30T03:20:20;3.58;;;1.75;;
33206;SDS011;19565;46.602;11.534;2023-09-30T03:22:51;3.72;;;1.88;;
33206;SDS011;19565;46.602;11.534;2023-09-30T03:25:19;1.65;;;1.33;;
33206;SDS011;19565;46.602;11.534;2023-09-30T03:27:48;2.20;;;2.00;;
33206;SDS011;19565;46.602;11.534;2023-09-30T03:30:17;3.22;;;2.17;;
33206;SDS011;19565;46.602;11.534;2023-09-30T03:32:46;2.58;;;2.38;;
33206;SDS011;19565;46.602;11.534;2023-09-30T03:35:14;1.33;;;0.80;;
33206;SDS011;19565;46.602;11.534;2023-09-30T03:37:45;2.15;;;1.45;;
33206;SDS011;19565;46.602;11.534;2023-09-30T03:40:14;1.67;;;1.48;;
33206;SDS011;19565;46.602;11.534;2023-09-30T03:42:46;1.85;;;1.73;;
33206;SDS011;19565;46.602;11.534;2023-09-30T03:45:16;2.13;;;1.92;;
33206;SDS011;19565;46.602;11.534;2023-09-30T03:47:45;10.77;;;2.38;;
33206;SDS011;19565;46.602;11.534;2023-09-30T03:50:14;3.50;;;2.22;;
33206;SDS011;19565;46.602;11.534;2023-09-30T03:52:42;3.40;;;2.55;;
33206;SDS011;19565;46.602;11.534;2023-09-30T03:55:15;2.90;;;2.03;;
33206;SDS011;19565;46.602;11.534;2023-09-30T03:57:47;2.85;;;2.33;;
33206;SDS011;19565;46.602;11.534;2023-09-30T04:00:15;2.75;;;1.98;;
33206;SDS011;19565;46.602;11.534;2023-09-30T04:02:47;3.20;;;1.40;;
33206;SDS011;19565;46.602;11.534;2023-09-30T04:05:17;5.30;;;3.10;;
33206;SDS011;19565;46.602;11.534;2023-09-30T04:07:46;3.00;;;2.72;;
33206;SDS011;19565;46.602;11.534;2023-09-30T04:10:16;2.67;;;2.47;;
33206;SDS011;19565;46.602;11.534;2023-09-30T04:12:47;1.40;;;1.27;;
33206;SDS011;19565;46.602;11.534;2023-09-30T04:15:15;1.30;;;1.00;;
33206;SDS011;19565;46.602;11.534;2023-09-30T04:17:43;1.23;;;1.00;;
33206;SDS011;19565;46.602;11.534;2023-09-30T04:20:12;8.52;;;2.30;;
33206;SDS011;19565;46.602;11.534;2023-09-30T04:22:46;2.10;;;1.90;;
33206;SDS011;19565;46.602;11.534;2023-09-30T04:25:17;2.95;;;2.75;;
33206;SDS011;19565;46.602;11.534;2023-09-30T04:27:45;2.22;;;2.00;;
33206;SDS011;19565;46.602;11.534;2023-09-30T04:30:15;3.53;;;2.05;;
33206;SDS011;19565;46.602;11.534;2023-09-30T04:32:44;2.90;;;1.33;;
33206;SDS011;19565;46.602;11.534;2023-09-30T04:35:12;4.53;;;2.90;;
33206;SDS011;19565;46.602;11.534;2023-09-30T04:37:41;3.53;;;1.70;;
33206;SDS011;19565;46.602;11.534;2023-09-30T04:40:10;1.58;;;1.48;;
33206;SDS011;19565;46.602;11.534;2023-09-30T04:42:44;3.63;;;1.50;;
33206;SDS011;19565;46.602;11.534;2023-09-30T04:45:13;3.75;;;1.60;;
33206;SDS011;19565;46.602;11.534;2023-09-30T04:47:43;3.88;;;1.55;;
33206;SDS011;19565;46.602;11.534;2023-09-30T04:50:12;2.97;;;1.33;;
33206;SDS011;19565;46.602;11.534;2023-09-30T04:52:42;7.82;;;2.25;;
33206;SDS011;19565;46.602;11.534;2023-09-30T04:55:11;2.55;;;2.33;;
33206;SDS011;19565;46.602;11.534;2023-09-30T04:57:44;3.40;;;2.67;;
33206;SDS011;19565;46.602;11.534;2023-09-30T05:00:14;11.65;;;3.53;;
33206;SDS011;19565;46.602;11.534;2023-09-30T05:02:43;2.15;;;1.88;;
33206;SDS011;19565;46.602;11.534;2023-09-30T05:05:12;1.60;;;1.50;;
33206;SDS011;19565;46.602;11.534;2023-09-30T05:07:41;1.88;;;1.42;;
33206;SDS011;19565;46.602;11.534;2023-09-30T05:10:10;1.90;;;1.75;;
33206;SDS011;19565;46.602;11.534;2023-09-30T05:12:43;2.58;;;1.92;;
33206;SDS011;19565;46.602;11.534;2023-09-30T05:15:14;2.55;;;2.13;;
33206;SDS011;19565;46.602;11.534;2023-09-30T05:17:43;0.88;;;0.88;;
33206;SDS011;19565;46.602;11.534;2023-09-30T05:20:13;2.75;;;2.03;;
33206;SDS011;19565;46.602;11.534;2023-09-30T05:22:44;2.25;;;2.13;;
33206;SDS011;19565;46.602;11.534;2023-09-30T05:25:13;4.93;;;1.48;;
33206;SDS011;19565;46.602;11.534;2023-09-30T05:27:44;5.95;;;2.83;;
33206;SDS011;19565;46.602;11.534;2023-09-30T05:30:14;2.38;;;2.08;;
33206;SDS011;19565;46.602;11.534;2023-09-30T05:32:43;2.17;;;1.55;;
33206;SDS011;19565;46.602;11.534;2023-09-30T05:35:13;4.38;;;2.30;;
33206;SDS011;19565;46.602;11.534;2023-09-30T05:37:43;5.95;;;2.63;;
33206;SDS011;19565;46.602;11.534;2023-09-30T05:40:12;3.20;;;1.33;;
33206;SDS011;19565;46.602;11.534;2023-09-30T05:42:50;2.22;;;1.05;;
33206;SDS011;19565;46.602;11.534;2023-09-30T05:45:19;1.65;;;0.85;;
33206;SDS011;19565;46.602;11.534;2023-09-30T05:47:50;2.55;;;2.15;;
33206;SDS011;19565;46.602;11.534;2023-09-30T05:50:20;3.30;;;2.70;;
33206;SDS011;19565;46.602;11.534;2023-09-30T05:52:51;3.58;;;3.33;;
33206;SDS011;19565;46.602;11.534;2023-09-30T05:55:21;2.22;;;1.83;;
33206;SDS011;19565;46.602;11.534;2023-09-30T05:57:53;2.60;;;1.48;;
33206;SDS011;19565;46.602;11.534;2023-09-30T06:00:22;3.45;;;1.80;;
33206;SDS011;19565;46.602;11.534;2023-09-30T06:02:56;4.20;;;1.92;;
33206;SDS011;19565;46.602;11.534;2023-09-30T06:05:25;2.00;;;1.70;;
33206;SDS011;19565;46.602;11.534;2023-09-30T06:07:56;1.77;;;1.65;;
33206;SDS011;19565;46.602;11.534;2023-09-30T06:10:24;1.95;;;1.73;;
33206;SDS011;19565;46.602;11.534;2023-09-30T06:12:53;1.90;;;1.70;;
33206;SDS011;19565;46.602;11.534;2023-09-30T06:15:23;4.03;;;3.63;;
33206;SDS011;19565;46.602;11.534;2023-09-30T06:17:53;2.60;;;2.38;;
33206;SDS011;19565;46.602;11.534;2023-09-30T06:20:21;1.02;;;0.90;;
33206;SDS011;19565;46.602;11.534;2023-09-30T06:22:53;1.63;;;1.52;;
33206;SDS011;19565;46.602;11.534;2023-09-30T06:25:22;2.35;;;1.92;;
33206;SDS011;19565;46.602;11.534;2023-09-30T06:27:51;2.03;;;1.63;;
33206;SDS011;19565;46.602;11.534;2023-09-30T06:30:20;3.47;;;2.42;;
33206;SDS011;19565;46.602;11.534;2023-09-30T06:32:56;1.38;;;1.10;;
33206;SDS011;19565;46.602;11.534;2023-09-30T06:35:26;4.05;;;3.65;;
33206;SDS011;19565;46.602;11.534;2023-09-30T06:37:56;4.05;;;2.65;;
33206;SDS011;19565;46.602;11.534;2023-09-30T06:40:24;1.77;;;1.63;;
33206;SDS011;19565;46.602;11.534;2023-09-30T06:42:52;6.57;;;2.38;;
33206;SDS011;19565;46.602;11.534;2023-09-30T06:45:21;2.58;;;1.80;;
33206;SDS011;19565;46.602;11.534;2023-09-30T06:47:50;2.40;;;2.20;;
33206;SDS011;19565;46.602;11.534;2023-09-30T06:50:18;2.10;;;1.52;;
33206;SDS011;19565;46.602;11.534;2023-09-30T06:52:48;3.65;;;2.05;;
33206;SDS011;19565;46.602;11.534;2023-09-30T06:55:16;3.65;;;2.22;;
33206;SDS011;19565;46.602;11.534;2023-09-30T06:57:45;2.67;;;2.28;;
33206;SDS011;19565;46.602;11.534;2023-09-30T07:00:13;1.98;;;1.75;;
33206;SDS011;19565;46.602;11.534;2023-09-30T07:02:44;2.50;;;2.10;;
33206;SDS011;19565;46.602;11.534;2023-09-30T07:05:13;1.55;;;1.25;;
33206;SDS011;19565;46.602;11.534;2023-09-30T07:07:42;2.30;;;1.25;;
33206;SDS011;19565;46.602;11.534;2023-09-30T07:10:10;2.15;;;1.85;;
33206;SDS011;19565;46.602;11.534;2023-09-30T07:12:39;3.45;;;2.20;;
33206;SDS011;19565;46.602;11.534;2023-09-30T07:15:07;2.47;;;1.70;;
33206;SDS011;19565;46.602;11.534;2023-09-30T07:17:36;3.08;;;2.58;;
33206;SDS011;19565;46.602;11.534;2023-09-30T07:20:08;4.93;;;2.88;;
33206;SDS011;19565;46.602;11.534;2023-09-30T07:22:36;12.07;;;1.77;;
33206;SDS011;19565;46.602;11.534;2023-09-30T07:25:18;2.28;;;2.08;;
33206;SDS011;19565;46.602;11.534;2023-09-30T07:27:46;3.85;;;2.63;;
33206;SDS011;19565;46.602;11.534;2023-09-30T07:30:14;3.08;;;1.88;;
33206;SDS011;19565;46.602;11.534;2023-09-30T07:32:42;1.95;;;1.63;;
33206;SDS011;19565;46.602;11.534;2023-09-30T07:35:13;4.18;;;2.22;;
33206;SDS011;19565;46.602;11.534;2023-09-30T07:37:42;1.67;;;1.58;;
33206;SDS011;19565;46.602;11.534;2023-09-30T07:40:11;2.15;;;1.98;;
33206;SDS011;19565;46.602;11.534;2023-09-30T07:42:40;2.47;;;2.05;;
33206;SDS011;19565;46.602;11.534;2023-09-30T07:45:08;7.45;;;2.58;;
33206;SDS011;19565;46.602;11.534;2023-09-30T07:47:37;2.92;;;1.75;;
33206;SDS011;19565;46.602;11.534;2023-09-30T07:50:06;3.47;;;2.92;;
33206;SDS011;19565;46.602;11.534;2023-09-30T07:52:38;15.32;;;2.33;;
33206;SDS011;19565;46.602;11.534;2023-09-30T07:55:07;4.15;;;1.67;;
33206;SDS011;19565;46.602;11.534;2023-09-30T07:57:36;3.25;;;2.95;;
33206;SDS011;19565;46.602;11.534;2023-09-30T08:00:08;3.17;;;2.92;;
33206;SDS011;19565;46.602;11.534;2023-09-30T08:02:41;2.05;;;1.25;;
33206;SDS011;19565;46.602;11.534;2023-09-30T08:05:10;2.75;;;1.73;;
33206;SDS011;19565;46.602;11.534;2023-09-30T08:07:39;3.60;;;1.25;;
33206;SDS011;19565;46.602;11.534;2023-09-30T08:10:08;4.65;;;3.15;;
33206;SDS011;19565;46.602;11.534;2023-09-30T08:12:39;3.83;;;3.53;;
33206;SDS011;19565;46.602;11.534;2023-09-30T08:15:08;4.90;;;4.45;;
33206;SDS011;19565;46.602;11.534;2023-09-30T08:17:38;7.15;;;4.53;;
33206;SDS011;19565;46.602;11.534;2023-09-30T08:20:07;3.90;;;3.60;;
33206;SDS011;19565;46.602;11.534;2023-09-30T08:22:36;5.07;;;4.72;;
33206;SDS011;19565;46.602;11.534;2023-09-30T08:25:06;4.10;;;3.80;;
33206;SDS011;19565;46.602;11.534;2023-09-30T08:27:36;4.60;;;4.30;;
33206;SDS011;19565;46.602;11.534;2023-09-30T08:30:05;4.85;;;4.53;;
33206;SDS011;19565;46.602;11.534;2023-09-30T08:32:34;5.05;;;4.65;;
33206;SDS011;19565;46.602;11.534;2023-09-30T08:35:03;4.53;;;4.22;;
33206;SDS011;19565;46.602;11.534;2023-09-30T08:37:31;4.35;;;4.05;;
33206;SDS011;19565;46.602;11.534;2023-09-30T08:39:59;4.95;;;4.65;;
33206;SDS011;19565;46.602;11.534;2023-09-30T08:42:29;5.53;;;4.30;;
33206;SDS011;19565;46.602;11.534;2023-09-30T08:45:05;5.75;;;5.35;;
33206;SDS011;19565;46.602;11.534;2023-09-30T08:47:35;7.13;;;6.53;;
33206;SDS011;19565;46.602;11.534;2023-09-30T08:50:05;7.38;;;6.80;;
33206;SDS011;19565;46.602;11.534;2023-09-30T08:52:36;8.67;;;8.07;;
33206;SDS011;19565;46.602;11.534;2023-09-30T08:55:07;8.10;;;7.50;;
33206;SDS011;19565;46.602;11.534;2023-09-30T08:57:37;9.10;;;8.40;;
33206;SDS011;19565;46.602;11.534;2023-09-30T09:00:07;8.50;;;8.00;;
33206;SDS011;19565;46.602;11.534;2023-09-30T09:02:39;8.75;;;8.15;;
33206;SDS011;19565;46.602;11.534;2023-09-30T09:05:08;9.18;;;8.48;;
33206;SDS011;19565;46.602;11.534;2023-09-30T09:07:37;8.50;;;7.97;;
33206;SDS011;19565;46.602;11.534;2023-09-30T09:10:06;8.70;;;8.05;;
33206;SDS011;19565;46.602;11.534;2023-09-30T09:12:35;9.50;;;8.90;;
33206;SDS011;19565;46.602;11.534;2023-09-30T09:15:06;9.52;;;8.85;;
33206;SDS011;19565;46.602;11.534;2023-09-30T09:17:42;8.20;;;7.70;;
33206;SDS011;19565;46.602;11.534;2023-09-30T09:20:11;9.40;;;8.77;;
33206;SDS011;19565;46.602;11.534;2023-09-30T09:22:46;9.20;;;8.60;;
33206;SDS011;19565;46.602;11.534;2023-09-30T09:25:17;9.60;;;8.90;;
33206;SDS011;19565;46.602;11.534;2023-09-30T09:27:46;10.43;;;9.73;;
33206;SDS011;19565;46.602;11.534;2023-09-30T09:30:15;11.45;;;10.75;;
33206;SDS011;19565;46.602;11.534;2023-09-30T09:32:53;11.10;;;10.35;;
33206;SDS011;19565;46.602;11.534;2023-09-30T09:35:22;13.68;;;12.98;;
33206;SDS011;19565;46.602;11.534;2023-09-30T09:37:55;13.32;;;12.52;;
33206;SDS011;19565;46.602;11.534;2023-09-30T09:40:25;14.52;;;13.63;;
33206;SDS011;19565;46.602;11.534;2023-09-30T09:42:55;15.57;;;14.77;;
33206;SDS011;19565;46.602;11.534;2023-09-30T09:45:26;15.48;;;14.68;;
33206;SDS011;19565;46.602;11.534;2023-09-30T09:47:58;18.00;;;17.00;;
33206;SDS011;19565;46.602;11.534;2023-09-30T09:50:26;18.23;;;17.23;;
33206;SDS011;19565;46.602;11.534;2023-09-30T09:52:55;18.90;;;18.00;;
33206;SDS011;19565;46.602;11.534;2023-09-30T09:55:25;22.25;;;21.25;;
33206;SDS011;19565;46.602;11.534;2023-09-30T09:57:56;25.75;;;24.55;;
33206;SDS011;19565;46.602;11.534;2023-09-30T10:00:26;22.58;;;21.55;;
33206;SDS011;19565;46.602;11.534;2023-09-30T10:02:56;23.38;;;22.17;;
33206;SDS011;19565;46.602;11.534;2023-09-30T10:05:25;25.38;;;24.27;;
33206;SDS011;19565;46.602;11.534;2023-09-30T10:07:54;23.25;;;22.25;;
33206;SDS011;19565;46.602;11.534;2023-09-30T10:10:27;21.95;;;20.95;;
33206;SDS011;19565;46.602;11.534;2023-09-30T10:12:57;21.45;;;20.33;;
33206;SDS011;19565;46.602;11.534;2023-09-30T10:15:35;25.45;;;24.15;;
33206;SDS011;19565;46.602;11.534;2023-09-30T10:18:08;27.23;;;25.95;;
33206;SDS011;19565;46.602;11.534;2023-09-30T10:20:41;28.45;;;25.67;;
33206;SDS011;19565;46.602;11.534;2023-09-30T10:23:18;32.15;;;30.75;;
33206;SDS011;19565;46.602;11.534;2023-09-30T10:25:46;32.42;;;30.80;;
33206;SDS011;19565;46.602;11.534;2023-09-30T10:28:35;33.28;;;31.88;;
33206;SDS011;19565;46.602;11.534;2023-09-30T10:31:12;38.35;;;36.75;;
33206;SDS011;19565;46.602;11.534;2023-09-30T10:36:53;52.03;;;49.90;;
33206;SDS011;19565;46.602;11.534;2023-09-30T10:51:11;59.35;;;56.58;;
33206;SDS011;19565;46.602;11.534;2023-09-30T10:53:44;60.42;;;57.92;;
33206;SDS011;19565;46.602;11.534;2023-09-30T10:56:14;62.03;;;59.33;;
33206;SDS011;19565;46.602;11.534;2023-09-30T10:58:43;61.42;;;58.83;;
33206;SDS011;19565;46.602;11.534;2023-09-30T11:01:14;66.13;;;63.33;;
33206;SDS011;19565;46.602;11.534;2023-09-30T11:03:44;62.95;;;60.15;;
33206;SDS011;19565;46.602;11.534;2023-09-30T11:06:14;63.10;;;60.50;;
33206;SDS011;19565;46.602;11.534;2023-09-30T11:08:46;60.97;;;58.38;;
33206;SDS011;19565;46.602;11.534;2023-09-30T11:11:19;65.45;;;62.42;;
33206;SDS011;19565;46.602;11.534;2023-09-30T11:14:00;61.58;;;58.95;;
33206;SDS011;19565;46.602;11.534;2023-09-30T11:16:30;59.63;;;57.03;;
33206;SDS011;19565;46.602;11.534;2023-09-30T11:18:58;59.90;;;57.17;;
33206;SDS011;19565;46.602;11.534;2023-09-30T11:21:26;58.00;;;55.60;;
33206;SDS011;19565;46.602;11.534;2023-09-30T11:23:55;59.17;;;56.58;;
33206;SDS011;19565;46.602;11.534;2023-09-30T11:26:29;56.70;;;54.28;;
33206;SDS011;19565;46.602;11.534;2023-09-30T11:29:04;57.38;;;54.88;;
33206;SDS011;19565;46.602;11.534;2023-09-30T11:31:36;58.55;;;56.10;;
33206;SDS011;19565;46.602;11.534;2023-09-30T11:34:04;59.22;;;56.72;;
33206;SDS011;19565;46.602;11.534;2023-09-30T11:36:36;60.63;;;58.13;;
33206;SDS011;19565;46.602;11.534;2023-09-30T11:39:05;59.50;;;56.83;;
33206;SDS011;19565;46.602;11.534;2023-09-30T11:41:36;60.05;;;57.50;;
33206;SDS011;19565;46.602;11.534;2023-09-30T11:44:05;60.70;;;58.10;;
33206;SDS011;19565;46.602;11.534;2023-09-30T11:46:50;61.25;;;58.65;;
33206;SDS011;19565;46.602;11.534;2023-09-30T11:49:24;62.05;;;59.38;;
33206;SDS011;19565;46.602;11.534;2023-09-30T11:51:54;59.88;;;57.38;;
33206;SDS011;19565;46.602;11.534;2023-09-30T11:54:28;61.35;;;58.53;;
33206;SDS011;19565;46.602;11.534;2023-09-30T11:56:58;58.22;;;55.83;;
33206;SDS011;19565;46.602;11.534;2023-09-30T11:59:27;59.97;;;57.47;;
33206;SDS011;19565;46.602;11.534;2023-09-30T12:01:56;58.70;;;56.30;;
33206;SDS011;19565;46.602;11.534;2023-09-30T12:04:40;60.85;;;58.13;;
33206;SDS011;19565;46.602;11.534;2023-09-30T12:07:09;64.43;;;61.72;;
33206;SDS011;19565;46.602;11.534;2023-09-30T12:09:37;66.43;;;63.28;;
33206;SDS011;19565;46.602;11.534;2023-09-30T12:12:07;60.25;;;57.65;;
33206;SDS011;19565;46.602;11.534;2023-09-30T12:14:37;55.55;;;53.25;;
33206;SDS011;19565;46.602;11.534;2023-09-30T12:17:07;51.15;;;49.05;;
33206;SDS011;19565;46.602;11.534;2023-09-30T12:19:38;56.95;;;54.55;;
33206;SDS011;19565;46.602;11.534;2023-09-30T12:22:07;58.92;;;56.40;;
33206;SDS011;19565;46.602;11.534;2023-09-30T12:24:36;58.53;;;56.13;;
33206;SDS011;19565;46.602;11.534;2023-09-30T12:27:06;58.30;;;55.70;;
33206;SDS011;19565;46.602;11.534;2023-09-30T12:29:33;58.38;;;55.88;;
33206;SDS011;19565;46.602;11.534;2023-09-30T12:32:04;59.03;;;56.53;;
33206;SDS011;19565;46.602;11.534;2023-09-30T12:34:34;56.88;;;54.47;;
33206;SDS011;19565;46.602;11.534;2023-09-30T12:37:02;60.13;;;57.42;;
33206;SDS011;19565;46.602;11.534;2023-09-30T12:39:31;61.70;;;59.08;;
33206;SDS011;19565;46.602;11.534;2023-09-30T12:42:00;61.20;;;58.60;;
33206;SDS011;19565;46.602;11.534;2023-09-30T12:44:28;61.00;;;58.40;;
33206;SDS011;19565;46.602;11.534;2023-09-30T12:46:56;62.47;;;59.80;;
33206;SDS011;19565;46.602;11.534;2023-09-30T12:49:24;61.47;;;58.97;;
33206;SDS011;19565;46.602;11.534;2023-09-30T12:51:53;62.15;;;59.60;;
33206;SDS011;19565;46.602;11.534;2023-09-30T12:54:22;64.07;;;61.28;;
33206;SDS011;19565;46.602;11.534;2023-09-30T12:56:50;59.88;;;57.28;;
33206;SDS011;19565;46.602;11.534;2023-09-30T12:59:18;62.05;;;59.42;;
33206;SDS011;19565;46.602;11.534;2023-09-30T13:01:50;60.80;;;58.20;;
33206;SDS011;19565;46.602;11.534;2023-09-30T13:04:18;60.95;;;58.35;;
33206;SDS011;19565;46.602;11.534;2023-09-30T13:06:46;59.97;;;57.47;;
33206;SDS011;19565;46.602;11.534;2023-09-30T13:09:18;57.53;;;55.08;;
33206;SDS011;19565;46.602;11.534;2023-09-30T13:11:46;59.05;;;56.55;;
33206;SDS011;19565;46.602;11.534;2023-09-30T13:14:14;59.90;;;57.30;;
33206;SDS011;19565;46.602;11.534;2023-09-30T13:16:43;57.40;;;55.00;;
33206;SDS011;19565;46.602;11.534;2023-09-30T13:19:11;59.25;;;56.75;;
33206;SDS011;19565;46.602;11.534;2023-09-30T13:21:42;59.35;;;56.85;;
33206;SDS011;19565;46.602;11.534;2023-09-30T13:24:10;58.20;;;55.78;;
33206;SDS011;19565;46.602;11.534;2023-09-30T13:26:39;60.75;;;57.95;;
33206;SDS011;19565;46.602;11.534;2023-09-30T13:29:08;59.75;;;57.25;;
33206;SDS011;19565;46.602;11.534;2023-09-30T13:31:38;60.22;;;57.63;;
33206;SDS011;19565;46.602;11.534;2023-09-30T13:34:06;61.72;;;58.75;;
33206;SDS011;19565;46.602;11.534;2023-09-30T13:36:34;58.50;;;56.00;;
33206;SDS011;19565;46.602;11.534;2023-09-30T13:39:02;59.97;;;57.38;;
33206;SDS011;19565;46.602;11.534;2023-09-30T13:41:33;54.30;;;52.00;;
33206;SDS011;19565;46.602;11.534;2023-09-30T13:44:03;57.33;;;54.78;;
33206;SDS011;19565;46.602;11.534;2023-09-30T13:46:32;57.88;;;55.35;;
33206;SDS011;19565;46.602;11.534;2023-09-30T13:49:00;56.55;;;54.15;;
33206;SDS011;19565;46.602;11.534;2023-09-30T13:51:28;57.42;;;54.80;;
33206;SDS011;19565;46.602;11.534;2023-09-30T13:53:56;58.75;;;56.30;;
33206;SDS011;19565;46.602;11.534;2023-09-30T13:56:24;57.25;;;54.75;;
33206;SDS011;19565;46.602;11.534;2023-09-30T13:58:53;53.88;;;51.67;;
33206;SDS011;19565;46.602;11.534;2023-09-30T14:01:25;52.85;;;50.45;;
33206;SDS011;19565;46.602;11.534;2023-09-30T14:03:54;53.35;;;51.15;;
33206;SDS011;19565;46.602;11.534;2023-09-30T14:06:23;53.60;;;50.97;;
33206;SDS011;19565;46.602;11.534;2023-09-30T14:08:52;52.55;;;50.25;;
33206;SDS011;19565;46.602;11.534;2023-09-30T14:11:20;53.58;;;51.28;;
33206;SDS011;19565;46.602;11.534;2023-09-30T14:13:48;54.45;;;52.03;;
33206;SDS011;19565;46.602;11.534;2023-09-30T14:16:16;53.33;;;51.03;;
33206;SDS011;19565;46.602;11.534;2023-09-30T14:18:45;52.78;;;50.58;;
33206;SDS011;19565;46.602;11.534;2023-09-30T14:21:15;54.15;;;51.75;;
33206;SDS011;19565;46.602;11.534;2023-09-30T14:23:44;52.53;;;50.22;;
33206;SDS011;19565;46.602;11.534;2023-09-30T14:26:12;51.85;;;49.63;;
33206;SDS011;19565;46.602;11.534;2023-09-30T14:28:40;49.60;;;47.50;;
33206;SDS011;19565;46.602;11.534;2023-09-30T14:31:08;50.55;;;48.45;;
33206;SDS011;19565;46.602;11.534;2023-09-30T14:33:37;50.63;;;48.53;;
33206;SDS011;19565;46.602;11.534;2023-09-30T14:36:06;50.97;;;48.78;;
33206;SDS011;19565;46.602;11.534;2023-09-30T14:38:34;50.50;;;48.30;;
33206;SDS011;19565;46.602;11.534;2023-09-30T14:41:05;49.20;;;46.97;;
33206;SDS011;19565;46.602;11.534;2023-09-30T14:43:34;47.35;;;45.25;;
33206;SDS011;19565;46.602;11.534;2023-09-30T14:46:02;46.05;;;44.05;;
33206;SDS011;19565;46.602;11.534;2023-09-30T14:48:30;45.40;;;43.50;;
33206;SDS011;19565;46.602;11.534;2023-09-30T14:50:59;47.70;;;45.70;;
33206;SDS011;19565;46.602;11.534;2023-09-30T14:53:28;46.15;;;44.05;;
33206;SDS011;19565;46.602;11.534;2023-09-30T14:55:56;45.00;;;43.05;;